Latest Weather Observations for Jandakot

IDW60901

Issued at 9:41 am WST Thursday 24 October 2019 (issued every 10 minutes, with the page automatically refreshed every 10 minutes)

About weather observations | Map of Perth area stations | Latest observations for Perth area | Other Formats
Station Details ID: 009172 Name: JANDAKOT AERO Lat: -32.10 Lon: 115.88 Height: 30.0 m
Data from the previous 72 hours. | See also: Recent months at Jandakot
Date/Time
WST
Temp
°C
App
Temp
°C
Dew
Point
°C
Rel
Hum
%
Delta-T
°C
Wind Press
QNH
hPa
Press
MSL
hPa
Rain since
9am
mm
Dir  Spd
km/h
Gust
km/h
Spd
kts
Gust
kts
24/09:30am 17.9 14.5 6.1 46 5.8 S 13 19 7 10 1020.8 1020.8 0.0
24/09:00am 16.9 12.5 6.7 51 5.0 S 19 32 10 17 1020.6 1020.6 1.2
24/08:30am 16.6 12.9 8.1 57 4.3 SSE 17 24 9 13 1020.4 1020.4 1.2
24/08:00am 15.5 12.0 8.7 64 3.5 SSE 17 24 9 13 1020.7 1020.7 1.2
24/07:30am 14.8 11.1 9.4 70 2.8 SSE 19 24 10 13 1020.5 1020.5 1.2
24/07:00am 13.8 11.9 10.6 81 1.7 SSE 11 17 6 9 1020.3 1020.3 1.2
24/06:30am 12.6 13.1 11.5 93 0.6 CALM 0 4 0 2 1019.9 1019.9 1.2
24/06:00am 11.1 8.9 10.8 98 0.2 SSE 13 13 7 7 1019.5 1019.5 1.2
24/05:30am 10.2 8.5 9.7 97 0.3 SE 9 11 5 6 1019.2 1019.2 1.2
24/05:00am 10.6 8.9 10.0 96 0.3 SE 9 11 5 6 1018.8 1018.8 1.2
24/04:30am 10.6 8.8 9.5 93 0.6 ESE 9 11 5 6 1018.5 1018.5 1.2
24/04:00am 11.7 9.7 10.1 90 0.8 SE 11 13 6 7 1018.2 1018.2 1.2
24/03:30am 13.3 11.8 10.7 84 1.4 SSE 9 13 5 7 1017.9 1017.9 1.2
24/03:00am 13.8 10.3 11.0 83 1.5 SSW 20 33 11 18 1017.9 1017.9 1.2
24/02:30am 14.9 11.5 9.1 68 3.0 SW 17 24 9 13 1017.8 1017.8 1.2
24/02:00am 14.5 11.6 9.5 72 2.6 SSW 15 22 8 12 1017.8 1017.8 1.2
24/01:30am 14.9 11.3 10.7 76 2.2 SSW 20 28 11 15 1017.8 1017.8 1.2
24/01:00am 15.6 10.9 10.6 72 2.6 SW 26 35 14 19 1018.1 1018.1 1.2
24/12:30am 15.4 11.3 7.7 60 3.8 SW 19 32 10 17 1017.9 1017.9 1.2
24/12:00am 15.8 10.4 7.8 59 4.0 SW 26 32 14 17 1018.1 1018.1 1.2
 
Date/Time
WST
Temp
°C
App
Temp
°C
Dew
Point
°C
Rel
Hum
%
Delta-T
°C
Wind Press
QNH
hPa
Press
MSL
hPa
Rain since
9am
mm
Dir  Spd
km/h
Gust
km/h
Spd
kts
Gust
kts
23/11:30pm 15.9 10.4 10.7 71 2.8 SW 30 39 16 21 1017.9 1017.9 1.2
23/11:00pm 16.4 12.0 9.1 62 3.8 SW 22 30 12 16 1017.9 1017.9 1.2
23/10:30pm 16.4 11.9 10.0 66 3.4 SW 24 33 13 18 1018.0 1018.0 1.2
23/10:00pm 16.2 10.8 10.9 71 2.8 SW 30 44 16 24 1018.0 1018.0 1.2
23/09:30pm 16.4 12.3 11.6 73 2.6 SW 24 35 13 19 1018.0 1018.0 1.2
23/09:00pm 16.5 13.6 12.3 76 2.3 SW 19 26 10 14 1017.9 1017.9 1.2
23/08:30pm 15.8 13.0 13.1 84 1.5 SW 20 32 11 17 1018.0 1018.0 1.2
23/08:00pm 15.9 13.4 14.1 89 1.0 SW 20 28 11 15 1017.8 1017.8 1.0
23/07:30pm 16.7 14.7 13.8 83 1.6 SW 17 22 9 12 1017.5 1017.5 1.0
23/07:00pm 16.9 14.4 14.2 84 1.5 SW 20 26 11 14 1017.0 1017.0 1.0
23/06:30pm 17.7 14.7 13.6 77 2.3 SW 22 32 12 17 1016.6 1016.6 1.0
23/06:00pm 17.8 15.1 13.5 76 2.4 SW 20 28 11 15 1016.4 1016.4 1.0
23/05:30pm 17.8 14.5 13.9 78 2.2 SW 24 32 13 17 1016.1 1016.1 1.0
23/05:00pm 18.4 15.1 13.9 75 2.6 WSW 24 32 13 17 1016.0 1016.0 1.0
23/04:30pm 18.8 15.4 14.7 77 2.4 WSW 26 35 14 19 1016.0 1016.0 1.0
23/04:00pm 18.4 14.6 14.7 79 2.1 WSW 28 41 15 22 1016.0 1016.0 1.0
23/03:40pm 18.3 15.9 16.5 89 1.1 WSW 24 35 13 19 1016.0 1016.0 1.0
23/03:37pm 18.2 16.2 16.5 90 1.0 WSW 22 32 12 17 1016.1 1016.1 1.0
23/03:30pm 17.8 16.7 17.2 96 0.4 W 19 32 10 17 1016.0 1016.0 1.0
23/03:25pm 17.5 16.2 17.2 98 0.2 W 20 28 11 15 1016.1 1016.1 1.0
23/03:02pm 17.8 15.4 16.3 91 0.9 WSW 24 33 13 18 1016.1 1016.1 0.2
23/03:00pm 17.8 14.9 16.0 89 1.1 WSW 26 33 14 18 1016.1 1016.1 0.2
23/02:30pm 20.3 17.5 14.4 69 3.4 W 22 30 12 16 1016.0 1016.0 0.0
23/02:00pm 20.5 16.0 13.9 66 3.8 W 30 39 16 21 1016.4 1016.4 0.0
23/01:30pm 20.0 16.5 14.6 71 3.2 W 26 37 14 20 1016.2 1016.2 0.0
23/01:00pm 20.4 16.8 15.2 72 3.1 WSW 28 39 15 21 1016.7 1016.7 0.0
23/12:58pm 20.4 17.7 15.6 74 2.9 WSW 24 37 13 20 1016.7 1016.7 0.0
23/12:44pm 18.7 16.2 17.0 90 1.0 WSW 26 33 14 18 1016.8 1016.8 0.0
23/12:30pm 20.2 16.7 15.4 74 2.8 WSW 28 39 15 21 1016.8 1016.8 0.0
23/12:00pm 21.9 17.5 14.0 61 4.6 WNW 30 39 16 21 1016.8 1016.8 0.0
23/11:30am 21.5 17.9 14.2 63 4.3 WNW 26 37 14 20 1017.0 1017.0 0.0
23/11:00am 22.8 18.5 13.3 55 5.5 WNW 28 39 15 21 1017.4 1017.4 0.0
23/10:30am 21.9 18.9 13.8 60 4.7 W 22 30 12 16 1017.4 1017.4 0.0
23/10:00am 21.9 18.4 13.3 58 4.9 W 24 33 13 18 1017.8 1017.8 0.0
23/09:30am 21.2 18.1 12.3 57 5.0 W 20 30 11 16 1017.9 1017.9 0.0
23/09:00am 20.5 17.9 13.7 65 3.9 W 20 28 11 15 1017.8 1017.8 0.0
23/08:30am 20.7 18.5 14.4 67 3.7 W 19 26 10 14 1017.8 1017.8 0.0
23/08:00am 19.7 17.1 13.2 66 3.7 W 19 24 10 13 1017.7 1017.7 0.0
23/07:30am 19.5 18.0 14.1 71 3.1 WSW 15 20 8 11 1017.7 1017.7 0.0
23/07:00am 18.2 18.7 15.1 82 1.8 W 6 15 3 8 1017.7 1017.7 0.0
23/06:30am 15.0 16.6 15.0 100 0.0 CALM 0 0 0 0 1017.6 1017.6 0.0
23/06:00am 11.7 12.2 11.7 100 0.0 CALM 0 0 0 0 1017.6 1017.6 0.0
23/05:30am 10.2 10.3 10.2 100 0.0 CALM 0 0 0 0 1017.4 1017.4 0.0
23/05:00am 10.5 10.7 10.5 100 0.0 CALM 0 0 0 0 1017.2 1017.2 0.0
23/04:52am 10.1 10.2 10.1 100 0.0 CALM 0 0 0 0 1017.2 1017.2 0.0
23/04:30am 12.0 12.6 12.0 100 0.0 CALM 0 0 0 0 1017.1 1017.1 0.0
23/04:13am 12.0 12.6 12.0 100 0.0 CALM 0 0 0 0 1017.0 1017.0 0.0
23/04:00am 12.2 12.9 12.2 100 0.0 CALM 0 0 0 0 1017.0 1017.0 0.0
23/03:30am 12.5 13.2 12.2 98 0.2 CALM 0 0 0 0 1017.1 1017.1 0.0
23/03:00am 13.5 14.5 13.3 99 0.1 CALM 0 0 0 0 1017.2 1017.2 0.0
23/02:30am 13.2 14.1 12.9 98 0.2 CALM 0 0 0 0 1017.2 1017.2 0.0
23/02:00am 13.6 14.5 12.8 95 0.4 CALM 0 0 0 0 1017.4 1017.4 0.0
23/01:30am 14.6 14.5 13.8 95 0.4 WSW 7 9 4 5 1017.5 1017.5 0.0
23/01:00am 14.1 13.5 13.5 96 0.3 WSW 9 11 5 6 1017.6 1017.6 0.0
23/12:30am 15.2 15.3 13.9 92 0.7 SW 6 7 3 4 1017.6 1017.6 0.0
23/12:00am 16.1 16.4 15.0 93 0.6 SW 7 9 4 5 1018.0 1018.0 0.0
 
Date/Time
WST
Temp
°C
App
Temp
°C
Dew
Point
°C
Rel
Hum
%
Delta-T
°C
Wind Press
QNH
hPa
Press
MSL
hPa
Rain since
9am
mm
Dir  Spd
km/h
Gust
km/h
Spd
kts
Gust
kts
22/11:30pm 16.2 16.1 14.9 92 0.7 SW 9 11 5 6 1018.0 1018.0 0.0
22/11:00pm 16.6 16.0 14.6 88 1.1 WSW 11 15 6 8 1018.3 1018.3 0.0
22/10:30pm 17.6 16.7 14.9 84 1.6 WSW 13 17 7 9 1018.5 1018.5 0.0
22/10:00pm 18.5 17.3 15.0 80 2.0 SW 15 19 8 10 1018.6 1018.6 0.0
22/09:30pm 18.4 18.5 15.5 83 1.7 SW 9 13 5 7 1018.8 1018.8 0.0
22/09:00pm 17.8 18.2 15.4 86 1.4 SW 7 9 4 5 1018.6 1018.6 0.0
22/08:30pm 17.9 17.2 15.5 86 1.4 WSW 13 17 7 9 1018.8 1018.8 0.0
22/08:00pm 18.3 17.9 15.2 82 1.8 SW 11 15 6 8 1018.6 1018.6 0.0
22/07:30pm 19.0 18.0 15.5 80 2.1 SW 15 20 8 11 1018.4 1018.4 0.0
22/07:00pm 19.0 18.1 15.9 82 1.8 WSW 15 17 8 9 1018.0 1018.0 0.0
22/06:30pm 19.5 18.4 15.4 77 2.4 WSW 15 20 8 11 1017.5 1017.5 0.0
22/06:00pm 19.9 17.8 15.1 74 2.8 SW 20 24 11 13 1017.3 1017.3 0.0
22/05:30pm 19.8 16.6 15.2 75 2.7 WSW 26 33 14 18 1017.4 1017.4 0.0
22/05:00pm 21.4 18.8 15.9 71 3.3 WSW 24 30 13 16 1017.1 1017.1 0.0
22/04:30pm 22.0 19.2 15.4 66 3.9 SW 24 32 13 17 1017.1 1017.1 0.0
22/04:00pm 22.7 19.1 15.3 63 4.4 SW 28 35 15 19 1016.9 1016.9 0.0
22/03:30pm 23.0 19.4 14.3 58 5.1 WSW 26 33 14 18 1016.6 1016.6 0.0
22/03:00pm 23.2 18.9 12.2 50 6.2 WSW 26 33 14 18 1016.5 1016.5 0.0
22/02:30pm 24.4 20.2 11.0 43 7.5 W 24 33 13 18 1016.6 1016.6 0.0
22/02:00pm 24.1 21.7 12.7 49 6.6 WSW 17 30 9 16 1016.8 1016.8 0.0
22/01:30pm 24.1 20.7 13.6 52 6.1 WSW 24 32 13 17 1017.5 1017.5 0.0
22/01:00pm 24.2 21.2 13.7 52 6.1 WSW 22 32 12 17 1017.6 1017.6 0.0
22/12:30pm 24.4 22.0 14.5 54 5.9 W 20 28 11 15 1017.6 1017.6 0.0
22/12:00pm 24.2 22.0 14.9 56 5.5 WSW 20 28 11 15 1017.8 1017.8 0.0
22/11:30am 24.0 22.0 15.0 57 5.4 WSW 19 26 10 14 1018.0 1018.0 0.0
22/11:00am 23.6 21.9 13.5 53 5.9 SW 15 22 8 12 1018.4 1018.4 0.0
22/10:30am 23.3 23.0 12.6 51 6.1 WNW 6 9 3 5 1018.8 1018.8 0.0
22/10:00am 22.2 22.2 12.5 54 5.5 SSE 4 7 2 4 1019.3 1019.3 0.0
22/09:30am 20.9 20.7 13.1 61 4.5 SSE 6 11 3 6 1019.4 1019.4 0.0
22/09:00am 20.1 20.0 13.3 65 3.9 SSW 6 11 3 6 1019.6 1019.6 0.0
22/08:30am 19.1 18.4 13.1 68 3.4 ESE 9 13 5 7 1019.6 1019.6 0.0
22/08:00am 18.0 17.8 13.7 76 2.4 SSE 7 11 4 6 1019.7 1019.7 0.0
22/07:30am 16.8 16.4 14.1 84 1.5 SSE 9 13 5 7 1020.0 1020.0 0.0
22/07:00am 15.1 14.8 14.3 95 0.5 S 9 13 5 7 1020.0 1020.0 0.0
22/06:30am 12.6 13.0 12.6 100 0.0 S 2 9 1 5 1020.0 1020.0 0.0
22/06:16am 11.5 12.0 11.5 100 0.0 CALM 0 0 0 0 1020.0 1020.0 0.0
22/06:00am 10.6 10.8 10.6 100 0.0 CALM 0 0 0 0 1020.0 1020.0 0.0
22/05:30am 9.5 9.4 9.5 100 0.0 CALM 0 0 0 0 1019.8 1019.8 0.0
22/05:16am 10.1 9.0 10.1 100 0.0 S 6 9 3 5 1019.7 1019.7 0.0
22/05:00am 11.4 10.5 11.4 100 0.0 SSW 7 11 4 6 1019.8 1019.8 0.0
22/04:55am 10.9 10.1 10.9 100 0.0 SSW 6 9 3 5 1019.7 1019.7 0.0
22/04:34am 10.9 10.1 10.9 100 0.0 SSE 6 7 3 4 1019.7 1019.7 0.0
22/04:30am 11.3 10.6 11.3 100 0.0 S 6 9 3 5 1019.7 1019.7 0.0
22/04:00am 11.9 10.0 11.9 100 0.0 SSW 13 13 7 7 1019.7 1019.7 0.0
22/03:48am 11.5 9.9 11.5 100 0.0 S 11 13 6 7 1019.6 1019.6 0.0
22/03:30am 11.2 10.4 11.2 100 0.0 S 6 6 3 3 1019.6 1019.6 0.0
22/03:24am 11.2 10.4 11.2 100 0.0 S 6 7 3 4 1019.6 1019.6 0.0
22/03:00am 11.8 11.0 11.8 100 0.0 S 7 9 4 5 1019.7 1019.7 0.0
22/02:30am 12.2 10.8 12.2 100 0.0 SSW 11 11 6 6 1019.8 1019.8 0.0
22/02:00am 11.9 10.8 11.9 100 0.0 S 9 9 5 5 1019.7 1019.7 0.0
22/01:30am 12.5 11.9 12.2 98 0.2 S 7 9 4 5 1019.8 1019.8 0.0
22/01:00am 12.6 11.6 12.3 98 0.2 S 9 13 5 7 1020.0 1020.0 0.0
22/12:30am 12.7 11.7 12.2 97 0.3 S 9 9 5 5 1020.2 1020.2 0.0
22/12:00am 12.9 11.9 12.4 97 0.3 S 9 11 5 6 1020.2 1020.2 0.0
 
Date/Time
WST
Temp
°C
App
Temp
°C
Dew
Point
°C
Rel
Hum
%
Delta-T
°C
Wind Press
QNH
hPa
Press
MSL
hPa
Rain since
9am
mm
Dir  Spd
km/h
Gust
km/h
Spd
kts
Gust
kts
21/11:30pm 13.1 12.5 12.3 95 0.4 S 7 9 4 5 1020.1 1020.1 0.0
21/11:00pm 13.7 12.5 12.8 94 0.5 S 11 13 6 7 1020.1 1020.1 0.0
21/10:30pm 14.3 13.2 13.0 92 0.7 S 11 15 6 8 1020.1 1020.1 0.0
21/10:00pm 14.9 13.9 13.3 90 0.9 SSW 11 13 6 7 1020.4 1020.4 0.0
21/09:30pm 15.7 14.7 13.4 86 1.3 SSW 11 13 6 7 1020.7 1020.7 0.0
21/09:00pm 16.0 15.0 13.5 85 1.4 SSW 11 15 6 8 1021.0 1021.0 0.0
21/08:30pm 16.4 15.4 13.5 83 1.6 SSW 11 15 6 8 1021.1 1021.1 0.0
21/08:00pm 16.9 15.6 13.6 81 1.9 SSW 13 17 7 9 1021.1 1021.1 0.0
21/07:30pm 17.4 16.0 13.5 78 2.2 SW 13 17 7 9 1020.9 1020.9 0.0
21/07:00pm 17.9 15.4 13.4 75 2.5 SSW 19 24 10 13 1020.4 1020.4 0.0
21/06:30pm 18.4 15.7 13.5 73 2.8 SW 20 26 11 14 1020.0 1020.0 0.0
21/06:00pm 18.8 16.1 13.4 71 3.1 SW 20 28 11 15 1019.7 1019.7 0.0
21/05:30pm 19.7 16.7 13.6 68 3.5 WSW 22 28 12 15 1019.7 1019.7 0.0
21/05:00pm 20.3 16.7 13.0 63 4.1 WSW 24 30 13 16 1019.4 1019.4 0.0
21/04:30pm 20.6 16.9 12.8 61 4.4 WSW 24 30 13 16 1019.2 1019.2 0.0
21/04:00pm 21.1 16.9 12.5 58 4.9 WSW 26 32 14 17 1019.1 1019.1 0.0
21/03:30pm 21.7 18.0 12.8 57 5.1 SW 24 33 13 18 1018.9 1018.9 0.0
21/03:00pm 21.9 17.7 12.5 55 5.3 WSW 26 35 14 19 1018.8 1018.8 0.0
21/02:30pm 21.9 19.2 13.0 57 5.1 WSW 19 28 10 15 1018.8 1018.8 0.0
21/02:00pm 22.3 19.3 12.0 52 5.8 SW 19 26 10 14 1019.0 1019.0 0.0
21/01:30pm 22.5 19.6 13.0 55 5.5 SW 20 28 11 15 1019.1 1019.1 0.0
21/01:00pm 22.1 18.8 12.9 56 5.3 WSW 22 32 12 17 1019.2 1019.2 0.0
21/12:30pm 22.4 19.6 13.2 56 5.3 WSW 20 30 11 16 1019.0 1019.0 0.0
21/12:00pm 22.4 19.2 13.2 56 5.3 W 22 30 12 16 1019.3 1019.3 0.0
21/11:30am 22.6 19.9 13.4 56 5.3 W 20 30 11 16 1019.3 1019.3 0.0
21/11:00am 21.7 19.4 13.1 58 4.9 W 17 30 9 16 1019.6 1019.6 0.0
21/10:30am 21.7 20.2 13.1 58 4.9 SSW 13 20 7 11 1019.7 1019.7 0.0
21/10:00am 21.0 19.9 13.2 61 4.5 SSW 11 19 6 10 1019.9 1019.9 0.0

Latest Capital City Observations: Canberra | Sydney | Melbourne | Brisbane | Adelaide | Perth | Hobart | Darwin

Other formats

Comma delimited format used in spreadsheet applications
http://www.bom.gov.au/fwo/IDW60901/IDW60901.94609.axf

JavaScript Object Notation format (JSON) in row-major order
http://www.bom.gov.au/fwo/IDW60901/IDW60901.94609.json

Data quality

Most of these data are generated automatically and are frequently updated. Quality checks on data are not normally performed. It is possible for incorrect values to appear. Refer to information at About Latest Weather Observations and please check the disclaimer before using these data.